createdAt,value
2019-04-16T00:00:50.135Z,6.22
2019-04-16T00:03:24.795Z,6.15
2019-04-16T00:08:48.077Z,6.50
2019-04-16T00:11:36.710Z,6.17
2019-04-16T00:14:11.677Z,5.87
2019-04-16T00:16:44.582Z,5.97
2019-04-16T00:19:25.686Z,6.00
2019-04-16T00:22:13.441Z,6.30
2019-04-16T00:24:46.680Z,6.42
2019-04-16T00:27:17.223Z,6.25
2019-04-16T00:29:46.120Z,6.42
2019-04-16T00:32:16.757Z,6.53
2019-04-16T00:34:52.556Z,5.60
2019-04-16T00:37:26.924Z,6.17
2019-04-16T00:39:57.657Z,5.67
2019-04-16T00:42:28.119Z,6.08
2019-04-16T00:44:58.651Z,5.78
2019-04-16T00:47:33.423Z,6.80
2019-04-16T00:50:04.463Z,5.90
2019-04-16T00:52:36.687Z,6.00
2019-04-16T00:55:07.110Z,6.62
2019-04-16T00:57:41.308Z,6.22
2019-04-16T01:00:14.168Z,5.72
2019-04-16T01:02:43.005Z,5.37
2019-04-16T01:05:15.426Z,6.10
2019-04-16T01:07:51.586Z,6.00
2019-04-16T01:10:20.546Z,6.35
2019-04-16T01:12:49.298Z,5.28
2019-04-16T01:15:24.004Z,6.40
2019-04-16T01:17:52.692Z,6.28
2019-04-16T01:20:21.477Z,6.65
2019-04-16T01:22:50.259Z,5.65
2019-04-16T01:25:20.282Z,6.50
2019-04-16T01:27:53.834Z,6.45
2019-04-16T01:30:24.184Z,6.58
2019-04-16T01:33:00.289Z,5.80
2019-04-16T01:35:32.620Z,6.12
2019-04-16T01:38:15.028Z,6.85
2019-04-16T01:40:47.358Z,6.45
2019-04-16T01:43:15.726Z,6.40
2019-04-16T01:45:46.058Z,7.08
2019-04-16T01:48:16.383Z,6.25
2019-04-16T01:50:45.312Z,6.47
2019-04-16T01:53:13.991Z,6.45
2019-04-16T01:55:42.757Z,7.10
2019-04-16T01:58:11.505Z,7.15
2019-04-16T02:00:40.236Z,6.03
2019-04-16T02:03:08.923Z,6.58
2019-04-16T02:05:37.582Z,6.22
2019-04-16T02:08:06.270Z,6.37
2019-04-16T02:10:38.450Z,7.28
2019-04-16T02:13:07.086Z,6.78
2019-04-16T02:15:35.748Z,6.25
2019-04-16T02:18:04.523Z,6.72
2019-04-16T02:20:33.418Z,6.05
2019-04-16T02:23:02.067Z,7.37
2019-04-16T02:25:30.758Z,7.03
2019-04-16T02:28:00.954Z,7.17
2019-04-16T02:30:37.726Z,6.37
2019-04-16T02:33:00.534Z,6.20
2019-04-16T02:35:29.590Z,6.28
2019-04-16T02:37:58.370Z,6.65
2019-04-16T02:40:27.141Z,7.08
2019-04-16T02:42:55.926Z,6.37
2019-04-16T02:45:24.676Z,6.05
2019-04-16T02:47:53.323Z,6.70
2019-04-16T02:50:30.498Z,7.03
2019-04-16T02:53:02.293Z,6.87
2019-04-16T02:55:44.870Z,6.70
2019-04-16T02:58:15.435Z,6.40
2019-04-16T03:03:55.447Z,6.70
2019-04-16T03:06:21.463Z,6.03
2019-04-16T03:08:50.225Z,6.45
2019-04-16T03:11:19.648Z,6.80
2019-04-16T03:13:48.339Z,6.58
2019-04-16T03:16:24.445Z,6.60
2019-04-16T03:18:54.770Z,6.40
2019-04-16T03:21:24.550Z,7.12
2019-04-16T03:23:56.770Z,6.58
2019-04-16T03:26:25.559Z,6.75
2019-04-16T03:28:55.669Z,6.65
2019-04-16T03:31:24.707Z,7.42
2019-04-16T03:33:53.356Z,6.60
2019-04-16T03:36:26.451Z,6.55
2019-04-16T03:38:55.033Z,7.15
2019-04-16T03:41:24.870Z,6.92
2019-04-16T03:43:54.136Z,7.33
2019-04-16T03:46:22.903Z,7.17
2019-04-16T03:48:52.652Z,7.28
2019-04-16T03:51:22.055Z,7.42
2019-04-16T03:53:50.722Z,7.62
2019-04-16T03:56:19.407Z,7.45
2019-04-16T03:58:51.294Z,6.80
2019-04-16T04:01:20.051Z,6.95
2019-04-16T04:03:54.477Z,7.47
2019-04-16T04:06:22.277Z,7.67
2019-04-16T04:08:53.174Z,7.83
2019-04-16T04:11:21.402Z,6.72
2019-04-16T04:13:50.967Z,6.65
2019-04-16T04:16:19.716Z,7.42
2019-04-16T04:18:48.418Z,6.85
2019-04-16T04:21:21.141Z,7.47
2019-04-16T04:23:47.567Z,7.50
2019-04-16T04:26:16.301Z,7.78
2019-04-16T04:28:45.087Z,7.40
2019-04-16T04:31:13.786Z,7.55
2019-04-16T04:33:44.624Z,7.65
2019-04-16T04:36:13.357Z,7.58
2019-04-16T04:38:43.274Z,7.58
2019-04-16T04:41:12.084Z,7.95
2019-04-16T04:43:40.767Z,7.58
2019-04-16T04:46:13.531Z,6.78
2019-04-16T04:48:39.963Z,7.72
2019-04-16T04:51:09.051Z,7.90
2019-04-16T04:53:38.402Z,7.95
2019-04-16T04:56:07.127Z,7.83
2019-04-16T04:58:35.843Z,8.25
2019-04-16T05:01:04.610Z,7.80
2019-04-16T05:03:53.069Z,8.28
2019-04-16T05:06:26.776Z,8.28
2019-04-16T05:08:53.960Z,7.70
2019-04-16T05:11:24.731Z,7.67
2019-04-16T05:13:56.387Z,7.20
2019-04-16T05:16:24.028Z,7.80
2019-04-16T05:18:52.733Z,7.72
2019-04-16T05:21:21.516Z,7.75
2019-04-16T05:23:50.628Z,7.55
2019-04-16T05:26:19.390Z,7.55
2019-04-16T05:28:54.640Z,8.00
2019-04-16T05:31:25.667Z,7.30
2019-04-16T05:33:53.870Z,7.75
2019-04-16T05:36:22.717Z,7.72
2019-04-16T05:38:55.535Z,7.45
2019-04-16T05:41:23.645Z,7.28
2019-04-16T05:43:52.409Z,7.50
2019-04-16T05:46:30.157Z,7.65
2019-04-16T05:48:58.893Z,7.62
2019-04-16T05:51:28.504Z,8.43
2019-04-16T05:54:12.153Z,7.90
2019-04-16T05:56:40.717Z,7.12
2019-04-16T05:59:09.437Z,7.35
2019-04-16T06:01:42.386Z,6.90
2019-04-16T06:04:10.173Z,7.58
2019-04-16T06:06:38.851Z,7.00
2019-04-16T06:09:11.944Z,7.67
2019-04-16T06:11:39.820Z,7.03
2019-04-16T06:14:17.906Z,6.55
2019-04-16T06:16:56.384Z,7.05
2019-04-16T06:19:23.500Z,6.65
2019-04-16T06:22:06.110Z,7.03
2019-04-16T06:24:52.556Z,7.62
2019-04-16T06:27:29.037Z,7.35
2019-04-16T06:30:18.486Z,7.30
2019-04-16T06:32:55.055Z,7.00
2019-04-16T06:35:43.559Z,7.12
2019-04-16T06:38:17.770Z,7.47
2019-04-16T06:40:50.856Z,7.12
2019-04-16T06:43:26.486Z,7.28
2019-04-16T06:46:12.119Z,6.67
2019-04-16T06:48:54.374Z,7.08
2019-04-16T06:51:44.470Z,7.28
2019-04-16T06:54:19.133Z,6.72
2019-04-16T06:57:05.921Z,6.40
2019-04-16T06:59:45.671Z,6.00
2019-04-16T07:02:15.122Z,5.72
2019-04-16T07:04:48.597Z,6.25
2019-04-16T07:07:22.433Z,5.55
2019-04-16T07:09:57.095Z,6.25
2019-04-16T07:12:28.888Z,5.60
2019-04-16T07:14:57.665Z,6.28
2019-04-16T07:17:26.411Z,5.90
2019-04-16T07:19:55.179Z,5.85
2019-04-16T07:22:25.786Z,5.30
2019-04-16T07:24:57.775Z,5.40
2019-04-16T07:27:33.558Z,5.97
2019-04-16T07:30:06.818Z,6.15
2019-04-16T07:32:36.891Z,5.58
2019-04-16T07:35:17.824Z,6.30
2019-04-16T07:38:04.935Z,6.40
2019-04-16T07:40:47.512Z,5.62
2019-04-16T07:43:30.993Z,5.70
2019-04-16T07:46:02.936Z,5.85
2019-04-16T07:48:51.482Z,6.08
2019-04-16T07:51:39.573Z,6.45
2019-04-16T07:54:18.796Z,6.37
2019-04-16T07:56:48.244Z,6.20
2019-04-16T07:59:17.088Z,6.10
2019-04-16T08:01:47.972Z,6.62
2019-04-16T08:04:26.875Z,6.10
2019-04-16T08:06:47.917Z,5.60
2019-04-16T08:09:16.682Z,6.10
2019-04-16T08:11:45.443Z,5.97
2019-04-16T08:14:14.719Z,6.30
2019-04-16T08:16:47.662Z,7.17
2019-04-16T08:19:16.256Z,6.55
2019-04-16T08:21:45.055Z,6.25
2019-04-16T08:24:25.620Z,5.92
2019-04-16T08:26:54.470Z,6.62
2019-04-16T08:29:26.368Z,6.20
2019-04-16T08:31:53.757Z,6.40
2019-04-16T08:34:22.493Z,6.03
2019-04-16T08:36:51.358Z,6.62
2019-04-16T08:39:20.129Z,7.22
2019-04-16T08:41:52.104Z,6.53
2019-04-16T08:44:19.452Z,6.58
2019-04-16T08:46:48.213Z,6.80
2019-04-16T08:49:22.129Z,6.50
2019-04-16T08:51:48.575Z,6.55
2019-04-16T08:54:18.164Z,6.47
2019-04-16T08:56:47.492Z,6.83
2019-04-16T08:59:22.008Z,7.42
2019-04-16T09:01:51.458Z,7.10
2019-04-16T09:04:21.352Z,6.85
2019-04-16T09:06:50.130Z,6.92
2019-04-16T09:09:26.399Z,6.58
2019-04-16T09:11:56.783Z,7.37
2019-04-16T09:14:26.968Z,7.10
2019-04-16T09:17:00.040Z,7.15
2019-04-16T09:19:28.806Z,6.85
2019-04-16T09:21:57.504Z,6.65
2019-04-16T09:24:30.716Z,7.47
2019-04-16T09:27:12.599Z,8.10
2019-04-16T09:29:48.636Z,7.65
2019-04-16T09:32:28.504Z,7.42
2019-04-16T09:35:10.131Z,7.75
2019-04-16T09:37:49.299Z,7.67
2019-04-16T09:40:36.275Z,7.17
2019-04-16T09:43:16.663Z,7.78
2019-04-16T09:45:38.051Z,7.75
2019-04-16T09:48:06.892Z,7.53
2019-04-16T09:50:42.953Z,7.25
2019-04-16T09:53:09.170Z,8.23
2019-04-16T09:55:39.480Z,7.90
2019-04-16T09:58:22.612Z,7.47
2019-04-16T10:00:53.255Z,8.50
2019-04-16T10:03:36.541Z,7.92
2019-04-16T10:06:06.788Z,7.80
2019-04-16T10:08:35.456Z,8.03
2019-04-16T10:11:06.218Z,7.65
2019-04-16T10:13:36.251Z,8.30
2019-04-16T10:16:05.477Z,7.87
2019-04-16T10:18:35.255Z,8.30
2019-04-16T10:21:08.318Z,7.70
2019-04-16T10:23:54.739Z,7.83
2019-04-16T10:26:25.074Z,8.08
2019-04-16T10:28:55.485Z,8.30
2019-04-16T10:31:25.767Z,7.75
2019-04-16T10:34:07.316Z,8.48
2019-04-16T10:36:37.986Z,8.83
2019-04-16T10:39:09.579Z,8.00
2019-04-16T10:41:39.926Z,9.48
2019-04-16T10:44:19.111Z,8.83
2019-04-16T10:46:52.239Z,8.65
2019-04-16T10:49:25.346Z,8.83
2019-04-16T10:51:59.446Z,9.23
2019-04-16T10:54:46.352Z,9.85
2019-04-16T10:57:34.529Z,9.88
2019-04-16T11:00:05.334Z,9.10
2019-04-16T11:02:38.532Z,10.45
2019-04-16T11:05:19.234Z,9.55
2019-04-16T11:07:50.690Z,9.50
2019-04-16T11:10:19.581Z,8.55
2019-04-16T11:12:49.733Z,8.23
2019-04-16T11:15:21.411Z,8.60
2019-04-16T11:17:50.071Z,8.53
2019-04-16T11:20:21.708Z,9.08
2019-04-16T11:22:51.828Z,8.90
2019-04-16T11:25:23.402Z,8.48
2019-04-16T11:27:52.220Z,8.00
2019-04-16T11:30:28.305Z,8.63
2019-04-16T11:32:57.047Z,8.80
2019-04-16T11:35:25.760Z,8.45
2019-04-16T11:37:54.534Z,7.67
2019-04-16T11:40:23.396Z,8.15
2019-04-16T11:42:52.100Z,8.58
2019-04-16T11:45:20.937Z,8.20
2019-04-16T11:47:49.722Z,9.05
2019-04-16T11:50:18.654Z,9.05
2019-04-16T11:52:47.430Z,8.90
2019-04-16T11:55:16.381Z,8.98
2019-04-16T11:57:45.213Z,8.73
2019-04-16T12:00:16.106Z,8.78
2019-04-16T12:02:46.438Z,7.95
2019-04-16T12:05:18.300Z,8.93
2019-04-16T12:07:51.599Z,8.25
2019-04-16T12:10:38.435Z,8.23
2019-04-16T12:13:18.017Z,8.15
2019-04-16T12:16:09.269Z,8.05
2019-04-16T12:18:57.453Z,8.08
2019-04-16T12:21:37.650Z,7.67
2019-04-16T12:27:07.191Z,7.70
2019-04-16T12:29:54.222Z,6.80
2019-04-16T12:32:26.867Z,7.30
2019-04-16T12:35:12.978Z,6.92
2019-04-16T12:37:59.664Z,7.33
2019-04-16T12:40:32.992Z,6.85
2019-04-16T12:43:03.310Z,7.10
2019-04-16T12:45:39.268Z,7.78
2019-04-16T12:48:12.585Z,8.13
2019-04-16T12:50:42.973Z,7.50
2019-04-16T12:53:13.326Z,8.03
2019-04-16T12:55:49.685Z,7.10
2019-04-16T12:58:25.468Z,7.78
2019-04-16T13:03:40.569Z,8.95
2019-04-16T13:06:16.937Z,8.68
2019-04-16T13:08:53.736Z,7.97
2019-04-16T13:11:36.268Z,8.50
2019-04-16T13:14:16.836Z,8.93
2019-04-16T13:16:50.189Z,8.83
2019-04-16T13:19:32.478Z,9.00
2019-04-16T13:22:20.065Z,8.43
2019-04-16T13:24:50.372Z,8.58
2019-04-16T13:27:23.668Z,9.53
2019-04-16T13:29:52.449Z,8.38
2019-04-16T13:32:21.316Z,8.60
2019-04-16T13:34:50.049Z,7.37
2019-04-16T13:37:18.746Z,7.62
2019-04-16T13:39:52.186Z,7.17
2019-04-16T13:42:20.917Z,7.65
2019-04-16T13:45:15.281Z,6.17
2019-04-16T13:47:33.997Z,6.20
2019-04-16T13:50:04.907Z,7.50
2019-04-16T13:52:33.823Z,6.33
2019-04-16T13:55:10.621Z,6.00
2019-04-16T13:57:49.979Z,6.42
2019-04-16T14:00:22.795Z,6.80
2019-04-16T14:02:59.188Z,6.75
2019-04-16T14:05:28.030Z,6.72
2019-04-16T14:07:56.807Z,6.00
2019-04-16T14:10:25.624Z,6.53
2019-04-16T14:12:54.383Z,6.33
2019-04-16T14:15:31.751Z,5.87
2019-04-16T14:17:59.163Z,5.22
2019-04-16T14:20:28.480Z,6.00
2019-04-16T14:22:57.217Z,5.62
2019-04-16T14:25:25.985Z,5.97
2019-04-16T14:27:55.656Z,5.50
2019-04-16T14:30:26.362Z,6.28
2019-04-16T14:32:56.540Z,6.37
2019-04-16T14:35:33.359Z,6.28
2019-04-16T14:37:57.833Z,6.33
2019-04-16T14:40:27.007Z,6.05
2019-04-16T14:42:57.466Z,5.83
2019-04-16T14:45:53.646Z,6.60
2019-04-16T14:48:09.545Z,5.87
2019-04-16T14:50:38.051Z,6.47
2019-04-16T14:53:08.388Z,6.95
2019-04-16T14:55:59.896Z,6.67
2019-04-16T14:58:37.248Z,6.72
2019-04-16T15:01:07.582Z,6.22
2019-04-16T15:03:54.145Z,7.17
2019-04-16T15:06:33.448Z,7.10
2019-04-16T15:09:22.411Z,6.80
2019-04-16T15:12:08.979Z,6.62
2019-04-16T15:14:55.492Z,6.95
2019-04-16T15:17:26.318Z,6.80
2019-04-16T15:20:00.534Z,6.95
2019-04-16T15:22:47.127Z,6.45
2019-04-16T15:25:26.329Z,6.87
2019-04-16T15:27:56.744Z,6.95
2019-04-16T15:30:50.287Z,7.30
2019-04-16T15:33:38.906Z,8.83
2019-04-16T15:36:21.098Z,7.75
2019-04-16T15:39:03.229Z,7.55
2019-04-16T15:41:55.570Z,8.15
2019-04-16T15:44:43.720Z,8.35
2019-04-16T15:47:24.974Z,8.38
2019-04-16T15:49:56.672Z,9.45
2019-04-16T15:52:27.607Z,8.45
2019-04-16T15:55:06.959Z,9.20
2019-04-16T15:57:38.791Z,9.03
2019-04-16T16:00:10.328Z,9.68
2019-04-16T16:02:45.352Z,8.23
2019-04-16T16:07:56.607Z,9.78
2019-04-16T16:10:26.806Z,8.85
2019-04-16T16:12:55.599Z,9.90
2019-04-16T16:15:24.282Z,9.53
2019-04-16T16:17:54.313Z,9.70
2019-04-16T16:20:28.737Z,9.85
2019-04-16T16:22:59.350Z,9.20
2019-04-16T16:25:28.336Z,10.15
2019-04-16T16:28:05.092Z,9.88
2019-04-16T16:30:33.838Z,10.48
2019-04-16T16:33:02.552Z,10.10
2019-04-16T16:35:35.011Z,10.40
2019-04-16T16:38:03.660Z,10.20
2019-04-16T16:40:32.473Z,9.88
2019-04-16T16:43:06.646Z,10.20
2019-04-16T16:45:38.182Z,9.50
2019-04-16T16:48:08.994Z,9.68
2019-04-16T16:50:37.778Z,9.60
2019-04-16T16:53:12.284Z,9.65
2019-04-16T16:55:44.912Z,9.58
2019-04-16T16:58:31.670Z,9.43
2019-04-16T17:01:22.681Z,9.18
2019-04-16T17:03:59.119Z,8.33
2019-04-16T17:06:30.572Z,8.35
2019-04-16T17:08:59.491Z,8.88
2019-04-16T17:11:28.271Z,8.70
2019-04-16T17:14:01.671Z,8.68
2019-04-16T17:16:29.183Z,8.60
2019-04-16T17:18:58.205Z,8.33
2019-04-16T17:21:26.853Z,7.83
2019-04-16T17:23:58.675Z,8.10
2019-04-16T17:26:29.085Z,8.38
2019-04-16T17:29:00.790Z,8.40
2019-04-16T17:31:31.194Z,8.23
2019-04-16T17:34:00.220Z,8.50
2019-04-16T17:36:29.019Z,7.58
2019-04-16T17:38:57.896Z,8.58
2019-04-16T17:41:28.409Z,8.40
2019-04-16T17:44:03.084Z,8.08
2019-04-16T17:46:51.148Z,8.25
2019-04-16T17:49:25.918Z,7.20
2019-04-16T17:51:58.887Z,7.67
2019-04-16T17:54:41.315Z,7.72
2019-04-16T17:57:29.894Z,7.83
2019-04-16T18:00:04.637Z,8.85
2019-04-16T18:03:28.116Z,7.58
2019-04-16T18:05:59.220Z,8.05
2019-04-16T18:08:46.077Z,8.20
2019-04-16T18:11:16.384Z,7.30
2019-04-16T18:13:46.787Z,8.03
2019-04-16T18:16:20.698Z,7.45
2019-04-16T18:18:54.299Z,7.27
2019-04-16T18:21:40.683Z,7.75
2019-04-16T18:24:27.125Z,8.00
2019-04-16T18:27:09.302Z,8.08
2019-04-16T18:29:48.793Z,8.15
2019-04-16T18:32:27.617Z,7.50
2019-04-16T18:35:16.134Z,7.65
2019-04-16T18:37:48.786Z,7.10
2019-04-16T18:40:35.144Z,6.92
2019-04-16T18:43:08.269Z,8.13
2019-04-16T18:45:56.612Z,7.12
2019-04-16T18:51:38.429Z,7.40
2019-04-16T18:54:07.442Z,8.05
2019-04-16T18:56:39.557Z,8.03
2019-04-16T18:59:13.303Z,8.35
2019-04-16T19:02:00.160Z,7.95
2019-04-16T19:04:51.060Z,7.83
2019-04-16T19:07:21.284Z,8.85
2019-04-16T19:09:53.339Z,7.80
2019-04-16T19:12:26.651Z,8.98
2019-04-16T19:14:56.478Z,8.40
2019-04-16T19:17:27.335Z,7.97
2019-04-16T19:20:04.927Z,7.50
2019-04-16T19:22:36.917Z,8.08
2019-04-16T19:25:09.246Z,7.67
2019-04-16T19:27:39.626Z,7.65
2019-04-16T19:30:25.051Z,7.72
2019-04-16T19:33:02.984Z,8.20
2019-04-16T19:35:40.897Z,7.80
2019-04-16T19:38:14.570Z,7.75
2019-04-16T19:40:43.791Z,7.78
2019-04-16T19:43:20.284Z,6.67
2019-04-16T19:45:54.512Z,8.30
2019-04-16T19:48:35.348Z,8.48
2019-04-16T19:50:55.341Z,8.48
2019-04-16T19:53:28.182Z,8.15
2019-04-16T19:55:57.128Z,7.47
2019-04-16T19:58:27.321Z,8.38
2019-04-16T20:00:59.153Z,7.28
2019-04-16T20:03:30.447Z,7.65
2019-04-16T20:06:01.693Z,7.92
2019-04-16T20:08:39.662Z,7.08
2019-04-16T20:11:05.892Z,7.12
2019-04-16T20:13:40.257Z,8.73
2019-04-16T20:16:10.634Z,8.30
2019-04-16T20:18:50.907Z,8.38
2019-04-16T20:21:11.816Z,7.80
2019-04-16T20:23:40.592Z,7.83
2019-04-16T20:26:09.288Z,7.05
2019-04-16T20:28:38.038Z,7.47
2019-04-16T20:31:06.914Z,6.97
2019-04-16T20:33:37.236Z,7.37
2019-04-16T20:36:08.964Z,7.22
2019-04-16T20:38:37.729Z,6.80
2019-04-16T20:41:12.229Z,6.85
2019-04-16T20:43:41.509Z,6.83
2019-04-16T20:46:10.329Z,7.30
2019-04-16T20:48:41.844Z,6.87
2019-04-16T20:51:10.259Z,6.90
2019-04-16T20:53:42.046Z,6.78
2019-04-16T20:56:11.127Z,6.87
2019-04-16T20:58:42.580Z,6.58
2019-04-16T21:01:11.362Z,6.83
2019-04-16T21:03:40.195Z,6.90
2019-04-16T21:06:09.701Z,6.80
2019-04-16T21:08:38.526Z,6.78
2019-04-16T21:11:09.211Z,6.75
2019-04-16T21:13:37.722Z,6.45
2019-04-16T21:16:08.020Z,6.30
2019-04-16T21:18:36.794Z,6.90
2019-04-16T21:21:05.457Z,6.70
2019-04-16T21:23:34.943Z,7.50
2019-04-16T21:26:06.872Z,6.28
2019-04-16T21:28:40.431Z,6.42
2019-04-16T21:31:12.964Z,6.42
2019-04-16T21:33:49.196Z,7.00
2019-04-16T21:36:36.998Z,7.30
2019-04-16T21:39:09.332Z,6.75
2019-04-16T21:41:37.981Z,6.97
2019-04-16T21:44:12.999Z,6.47
2019-04-16T21:46:41.387Z,6.42
2019-04-16T21:49:10.577Z,7.20
2019-04-16T21:51:40.899Z,6.90
2019-04-16T21:54:09.670Z,6.58
2019-04-16T21:56:39.630Z,6.70
2019-04-16T21:59:08.845Z,6.53
2019-04-16T22:01:41.848Z,7.12
2019-04-16T22:04:14.354Z,7.58
2019-04-16T22:06:42.679Z,7.33
2019-04-16T22:09:13.965Z,6.40
2019-04-16T22:11:44.332Z,7.67
2019-04-16T22:14:13.261Z,7.28
2019-04-16T22:16:44.999Z,7.35
2019-04-16T22:19:14.992Z,7.40
2019-04-16T22:21:43.902Z,7.08
2019-04-16T22:24:15.721Z,7.33
2019-04-16T22:26:44.418Z,7.45
2019-04-16T22:29:15.655Z,7.17
2019-04-16T22:31:43.676Z,6.92
2019-04-16T22:34:13.802Z,6.95
2019-04-16T22:36:42.569Z,7.40
2019-04-16T22:39:29.346Z,7.22
2019-04-16T22:42:02.730Z,7.67
2019-04-16T22:44:51.133Z,7.35
2019-04-16T22:47:27.035Z,7.20
2019-04-16T22:50:13.070Z,7.28
2019-04-16T22:52:26.366Z,7.58
2019-04-16T22:54:56.522Z,6.80
2019-04-16T22:57:25.222Z,7.37
2019-04-16T22:59:55.558Z,6.92
2019-04-16T23:02:25.958Z,7.60
2019-04-16T23:04:57.612Z,7.28
2019-04-16T23:07:25.528Z,7.42
2019-04-16T23:09:54.278Z,7.65
2019-04-16T23:12:27.227Z,7.30
2019-04-16T23:14:53.503Z,7.35
2019-04-16T23:17:23.864Z,7.53
2019-04-16T23:19:55.622Z,7.67
2019-04-16T23:22:24.316Z,7.87
2019-04-16T23:25:29.079Z,7.50
2019-04-16T23:27:57.831Z,7.70
2019-04-16T23:30:29.621Z,8.08
2019-04-16T23:33:00.119Z,7.30
2019-04-16T23:35:28.789Z,7.10
2019-04-16T23:38:01.176Z,7.87
2019-04-16T23:40:29.957Z,7.78
2019-04-16T23:43:12.160Z,7.65
2019-04-16T23:45:51.623Z,7.50
2019-04-16T23:48:28.402Z,7.87
2019-04-16T23:51:05.304Z,7.72
2019-04-16T23:53:41.773Z,7.55
2019-04-16T23:56:20.690Z,7.58
2019-04-16T23:58:50.252Z,8.10
